Decimomannu, Italy

6:53 AM CEST on September 02, 2014 (GMT +0200)
SestuMeteo | Change Station
CLOSE
Current Station
Personal Weather Station
Location: Sestu, SARDEGNA
Elevation: 183 ft
Nearby Weather Stations

Elev 183 ft 39.31 °N, 9.08 °E | Updated 3 seconds ago

Clear
Clear
59.3 °F
Feels Like 59.3 °F
N
0.1
Wind Variable Wind from SSW
Gusts 1.2 mph

Today
High -- | Low -- °F
--% Chance of Precip.
Yesterday
High -- | Low -- °F
Precip. -- in
6:53 AM 7:53 PM
Waxing Crescent, 47% visible
Pressure 29.80 in
Visibility -9999.0 miles
Clouds
Dew Point 57 °F
Humidity 91%
Rainfall 0.00 in
Snow Depth Not available.
UV 0.0 out of 12
Pollen Not available.
Air Quality Not available.
Flu Activity Not available.
METAR LIEE 020420Z 03003KT CAVOK 18/15 Q1009

More Conditions Fewer Conditions

Pressure 29.80 in
Visibility -9999.0 miles
Clouds
Dew Point 57 °F
Humidity 91%
Rainfall 0.00 in
Snow Depth Not available.
UV 0.0 out of 12
Pollen Not available.
Air Quality Not available.
Flu Activity Not available.
METAR LIEE 020420Z 03003KT CAVOK 18/15 Q1009

More Conditions Fewer Conditions

10-Day Weather Forecast

Almanac

Astronomy

Sep. 02, 2014 Rise Set
Actual Time 6:53 AM CEST 7:53 PM CEST
Civil Twilight 6:25 AM CEST 8:21 PM CEST
Nautical Twilight 5:53 AM CEST 8:53 PM CEST
Astronomical Twilight 5:19 AM CEST 9:27 PM CEST
Moon 2:19 PM CEST No Moon Set
Length of Visible Light 13h 55m
Length of Day
13h 00m
Tomorrow will be 2m 29s shorter.
Waxing Crescent, 47% of the Moon is Illuminated
Today
Waxing Crescent
Sep 2
First Quarter
Sep 8
Full
Sep 15
Last Quarter
Sep 24
New

Yesterday's Extremes

Country Highs Country Lows

Community

WunderPhotos

Upload Photos

1,749,573 photos uploaded!

WunderBlogs® & News

Nearby

Snow Depth

Not available.

Earthquake Activity

City Distance Mag. Time & Date
No recent earthquake activity has been reported nearby.
Minimum magnitude displayed is 2.5.

Coastal Water Temperatures

Place Temperature
No Stations Reporting

Nearby Weather Stations